createdAt,value
2018-04-11T00:01:15.250Z,12.57
2018-04-11T00:03:43.462Z,12.73
2018-04-11T00:06:10.892Z,12.10
2018-04-11T00:08:38.333Z,12.30
2018-04-11T00:11:05.777Z,11.90
2018-04-11T00:13:33.993Z,11.80
2018-04-11T00:16:01.426Z,12.00
2018-04-11T00:18:28.871Z,11.87
2018-04-11T00:20:56.313Z,12.60
2018-04-11T00:23:24.522Z,9.50
2018-04-11T00:25:52.725Z,8.40
2018-04-11T00:28:20.927Z,9.20
2018-04-11T00:30:49.122Z,7.23
2018-04-11T00:33:17.326Z,6.27
2018-04-11T00:35:44.756Z,4.30
2018-04-11T00:38:12.190Z,4.57
2018-04-11T00:40:39.614Z,4.50
2018-04-11T00:43:07.058Z,3.87
2018-04-11T00:45:34.482Z,4.27
2018-04-11T00:48:01.934Z,4.40
2018-04-11T00:50:29.362Z,4.00
2018-04-11T00:53:08.608Z,5.13
2018-04-11T00:55:36.041Z,3.70
2018-04-11T00:58:03.474Z,3.87
2018-04-11T01:00:30.901Z,4.23
2018-04-11T01:02:58.342Z,4.30
2018-04-11T01:05:26.533Z,4.70
2018-04-11T01:07:53.965Z,4.30
2018-04-11T01:10:21.396Z,5.50
2018-04-11T01:12:48.830Z,6.67
2018-04-11T01:15:16.253Z,7.53
2018-04-11T01:17:43.698Z,6.80
2018-04-11T01:20:11.128Z,5.53
2018-04-11T01:22:39.342Z,7.30
2018-04-11T01:25:07.532Z,7.10
2018-04-11T01:27:35.755Z,6.30
2018-04-11T01:30:03.182Z,6.90
2018-04-11T01:32:30.635Z,7.93
2018-04-11T01:34:58.070Z,8.10
2018-04-11T01:37:26.265Z,7.50
2018-04-11T01:39:54.474Z,8.17
2018-04-11T01:42:22.686Z,8.37
2018-04-11T01:44:50.117Z,9.60
2018-04-11T01:47:17.566Z,10.67
2018-04-11T01:49:45.007Z,12.57
2018-04-11T01:52:13.214Z,13.27
2018-04-11T01:54:41.426Z,13.43
2018-04-11T01:57:08.854Z,13.67
2018-04-11T01:59:36.294Z,11.00
2018-04-11T02:02:03.725Z,8.40
2018-04-11T02:04:31.158Z,6.00
2018-04-11T02:06:58.581Z,4.73
2018-04-11T02:09:26.023Z,4.50
2018-04-11T02:11:53.458Z,3.27
2018-04-11T02:14:20.890Z,2.27
2018-04-11T02:16:48.318Z,2.60
2018-04-11T02:19:15.748Z,2.77
2018-04-11T02:21:43.187Z,2.93
2018-04-11T02:24:11.390Z,3.23
2018-04-11T02:26:39.585Z,3.27
2018-04-11T02:29:07.786Z,5.53
2018-04-11T02:31:35.974Z,4.57
2018-04-11T02:34:04.179Z,3.40
2018-04-11T02:36:32.370Z,3.80
2018-04-11T02:38:59.808Z,3.53
2018-04-11T02:41:27.236Z,3.00
2018-04-11T02:43:55.434Z,2.30
2018-04-11T02:46:23.636Z,1.63
2018-04-11T02:48:51.845Z,1.77
2018-04-11T02:51:20.027Z,1.90
2018-04-11T02:53:48.243Z,1.80
2018-04-11T02:56:16.439Z,1.43
2018-04-11T02:58:44.641Z,1.70
2018-04-11T03:01:12.070Z,2.03
2018-04-11T03:03:40.270Z,1.53
2018-04-11T03:06:07.698Z,1.20
2018-04-11T03:08:35.902Z,3.00
2018-04-11T03:11:03.325Z,1.30
2018-04-11T03:13:30.757Z,1.70
2018-04-11T03:15:58.194Z,2.10
2018-04-11T03:18:25.625Z,3.70
2018-04-11T03:20:53.058Z,2.90
2018-04-11T03:23:20.490Z,3.70
2018-04-11T03:25:47.918Z,4.20
2018-04-11T03:28:15.354Z,4.70
2018-04-11T03:30:42.785Z,6.53
2018-04-11T03:33:10.223Z,6.27
2018-04-11T03:35:37.655Z,6.50
2018-04-11T03:38:05.090Z,6.97
2018-04-11T03:40:32.518Z,7.17
2018-04-11T03:42:59.958Z,8.00
2018-04-11T03:45:27.385Z,8.20
2018-04-11T03:47:55.592Z,11.23
2018-04-11T03:50:23.795Z,9.70
2018-04-11T03:52:51.994Z,6.63
2018-04-11T03:55:20.195Z,6.30
2018-04-11T03:57:48.391Z,11.47
2018-04-11T04:00:16.594Z,9.30
2018-04-11T04:02:44.790Z,8.20
2018-04-11T04:05:12.990Z,7.63
2018-04-11T04:07:41.209Z,7.10
2018-04-11T04:10:09.387Z,7.60
2018-04-11T04:12:37.587Z,6.50
2018-04-11T04:15:17.454Z,7.40
2018-04-11T04:17:57.486Z,8.70
2018-04-11T04:20:37.725Z,8.70
2018-04-11T04:23:05.922Z,10.37
2018-04-11T04:25:33.361Z,10.90
2018-04-11T04:28:00.793Z,11.10
2018-04-11T04:30:28.230Z,12.70
2018-04-11T04:32:55.661Z,14.10
2018-04-11T04:35:23.105Z,12.93
2018-04-11T04:37:50.539Z,13.10
2018-04-11T04:40:17.983Z,14.40
2018-04-11T04:42:46.182Z,13.77
2018-04-11T04:45:14.402Z,14.27
2018-04-11T04:47:41.817Z,14.70
2018-04-11T04:50:09.253Z,12.67
2018-04-11T04:52:36.698Z,17.60
2018-04-11T04:55:04.142Z,16.17
2018-04-11T04:57:31.581Z,16.57
2018-04-11T04:59:59.779Z,15.80
2018-04-11T05:02:27.983Z,16.03
2018-04-11T05:04:55.429Z,18.13
2018-04-11T05:07:22.857Z,18.67
2018-04-11T05:09:50.298Z,20.27
2018-04-11T05:12:17.738Z,22.07
2018-04-11T05:14:45.180Z,21.53
2018-04-11T05:17:13.380Z,20.83
2018-04-11T05:19:42.134Z,21.20
2018-04-11T05:22:09.590Z,21.23
2018-04-11T05:24:37.031Z,22.07
2018-04-11T05:27:04.466Z,22.50
2018-04-11T05:29:31.905Z,22.43
2018-04-11T05:32:00.142Z,23.37
2018-04-11T05:34:27.574Z,25.10
2018-04-11T05:36:55.770Z,25.50
2018-04-11T05:39:23.210Z,23.13
2018-04-11T05:41:50.646Z,24.37
2018-04-11T05:44:18.850Z,25.63
2018-04-11T05:46:47.054Z,24.10
2018-04-11T05:49:15.257Z,24.77
2018-04-11T05:51:42.688Z,21.80
2018-04-11T05:54:10.126Z,24.30
2018-04-11T05:56:37.558Z,24.63
2018-04-11T05:59:04.993Z,22.17
2018-04-11T06:01:32.427Z,21.73
2018-04-11T06:03:59.858Z,25.60
2018-04-11T06:06:27.307Z,24.10
2018-04-11T06:08:55.501Z,24.57
2018-04-11T06:11:23.719Z,24.73
2018-04-11T06:13:51.147Z,25.00
2018-04-11T06:16:18.583Z,25.70
2018-04-11T06:18:46.014Z,22.03
2018-04-11T06:21:13.453Z,18.43
2018-04-11T06:23:40.890Z,18.17
2018-04-11T06:26:08.339Z,18.27
2018-04-11T06:28:36.539Z,16.60
2018-04-11T06:31:03.978Z,15.70
2018-04-11T06:33:31.416Z,16.50
2018-04-11T06:35:58.855Z,14.90
2018-04-11T06:38:26.292Z,13.93
2018-04-11T06:40:53.745Z,14.27
2018-04-11T06:43:21.187Z,15.10
2018-04-11T06:45:48.629Z,15.80
2018-04-11T06:48:16.062Z,16.00
2018-04-11T06:50:43.508Z,15.70
2018-04-11T06:53:11.711Z,17.77
2018-04-11T06:55:39.917Z,17.73
2018-04-11T06:58:07.350Z,16.83
2018-04-11T07:00:34.798Z,15.90
2018-04-11T07:03:02.263Z,14.60
2018-04-11T07:05:30.440Z,14.77
2018-04-11T07:07:58.642Z,15.60
2018-04-11T07:10:26.854Z,14.53
2018-04-11T07:12:54.286Z,15.77
2018-04-11T07:15:21.746Z,13.57
2018-04-11T07:17:49.186Z,11.90
2018-04-11T07:20:17.402Z,11.37
2018-04-11T07:22:44.837Z,11.93
2018-04-11T07:25:12.277Z,12.20
2018-04-11T07:27:39.718Z,12.00
2018-04-11T07:30:07.922Z,10.70
2018-04-11T07:32:36.130Z,11.97
2018-04-11T07:35:03.579Z,11.57
2018-04-11T07:37:31.017Z,10.67
2018-04-11T07:39:58.459Z,10.30
2018-04-11T07:42:26.663Z,9.77
2018-04-11T07:44:54.877Z,10.57
2018-04-11T07:47:22.309Z,8.93
2018-04-11T07:49:49.750Z,9.00
2018-04-11T07:52:17.186Z,9.00
2018-04-11T07:54:44.622Z,6.97
2018-04-11T07:57:12.058Z,8.07
2018-04-11T07:59:40.263Z,7.17
2018-04-11T08:02:08.461Z,7.87
2018-04-11T08:04:36.658Z,6.40
2018-04-11T08:07:04.867Z,8.27
2018-04-11T08:09:32.298Z,7.73
2018-04-11T08:11:59.733Z,7.40
2018-04-11T08:14:27.166Z,8.60
2018-04-11T08:16:54.593Z,8.03
2018-04-11T08:19:22.026Z,9.00
2018-04-11T08:21:49.469Z,8.43
2018-04-11T08:24:16.907Z,8.60
2018-04-11T08:26:44.354Z,10.33
2018-04-11T08:29:11.793Z,9.50
2018-04-11T08:31:39.236Z,17.23
2018-04-11T08:34:06.673Z,11.00
2018-04-11T08:36:34.118Z,9.77
2018-04-11T08:39:02.312Z,9.93
2018-04-11T08:41:30.524Z,11.07
2018-04-11T08:43:58.728Z,10.30
2018-04-11T08:46:26.170Z,14.10
2018-04-11T08:48:53.605Z,10.43
2018-04-11T08:51:21.051Z,10.40
2018-04-11T08:53:49.265Z,11.23
2018-04-11T08:56:17.470Z,12.07
2018-04-11T08:58:44.911Z,9.60
2018-04-11T09:01:12.354Z,10.50
2018-04-11T09:03:39.793Z,10.07
2018-04-11T09:06:08.007Z,9.83
2018-04-11T09:08:36.210Z,10.40
2018-04-11T09:11:03.653Z,10.90
2018-04-11T09:13:31.090Z,11.87
2018-04-11T09:15:58.530Z,9.03
2018-04-11T09:18:26.738Z,9.60
2018-04-11T09:20:55.739Z,9.80
2018-04-11T09:23:23.176Z,9.50
2018-04-11T09:25:50.615Z,8.80
2018-04-11T09:28:18.809Z,8.77
2018-04-11T09:30:47.022Z,8.70
2018-04-11T09:33:15.265Z,7.70
2018-04-11T09:35:43.426Z,8.10
2018-04-11T09:38:10.863Z,8.40
2018-04-11T09:40:38.293Z,6.87
2018-04-11T09:43:05.736Z,7.00
2018-04-11T09:45:33.176Z,7.00
2018-04-11T09:48:00.606Z,8.10
2018-04-11T09:50:28.810Z,8.40
2018-04-11T09:52:57.001Z,8.67
2018-04-11T09:55:25.216Z,8.73
2018-04-11T09:57:53.414Z,7.67
2018-04-11T10:00:21.624Z,9.03
2018-04-11T10:02:54.822Z,9.00
2018-04-11T10:05:23.035Z,9.07
2018-04-11T10:07:50.469Z,8.47
2018-04-11T10:10:17.906Z,9.83
2018-04-11T10:12:45.347Z,8.70
2018-04-11T10:15:12.787Z,8.27
2018-04-11T10:17:40.231Z,8.27
2018-04-11T10:20:08.430Z,9.97
2018-04-11T10:22:36.633Z,9.10
2018-04-11T10:25:04.069Z,10.23
2018-04-11T10:27:31.509Z,9.50
2018-04-11T10:29:58.942Z,9.57
2018-04-11T10:32:26.378Z,8.73
2018-04-11T10:34:53.809Z,8.87
2018-04-11T10:37:21.250Z,9.00
2018-04-11T10:39:48.727Z,8.53
2018-04-11T10:42:16.885Z,8.77
2018-04-11T10:44:45.084Z,7.80
2018-04-11T10:47:13.297Z,7.93
2018-04-11T10:49:40.721Z,8.00
2018-04-11T10:52:08.161Z,7.23
2018-04-11T10:54:35.599Z,7.80
2018-04-11T10:57:03.037Z,6.93
2018-04-11T10:59:30.461Z,7.20
2018-04-11T11:01:57.901Z,6.70
2018-04-11T11:04:25.330Z,6.97
2018-04-11T11:06:52.779Z,7.90
2018-04-11T11:09:20.210Z,7.33
2018-04-11T11:11:48.422Z,7.27
2018-04-11T11:14:15.850Z,7.60
2018-04-11T11:16:43.285Z,8.07
2018-04-11T11:19:10.794Z,7.80
2018-04-11T11:21:38.238Z,7.60
2018-04-11T11:24:06.429Z,5.87
2018-04-11T11:26:34.626Z,7.83
2018-04-11T11:29:02.830Z,8.30
2018-04-11T11:31:31.035Z,8.73
2018-04-11T11:33:58.466Z,8.57
2018-04-11T11:36:25.906Z,7.60
2018-04-11T11:38:53.347Z,8.37
2018-04-11T11:41:20.781Z,7.70
2018-04-11T11:43:48.210Z,7.63
2018-04-11T11:46:15.650Z,8.53
2018-04-11T11:48:43.085Z,8.10
2018-04-11T11:51:11.293Z,8.63
2018-04-11T11:53:39.490Z,8.60
2018-04-11T11:56:07.692Z,7.87
2018-04-11T11:58:35.127Z,8.27
2018-04-11T12:01:02.557Z,7.93
2018-04-11T12:03:29.994Z,6.83
2018-04-11T12:05:57.425Z,6.47
2018-04-11T12:08:24.866Z,6.40
2018-04-11T12:10:52.305Z,5.50
2018-04-11T12:13:19.742Z,5.77
2018-04-11T12:15:47.941Z,6.00
2018-04-11T12:18:16.147Z,5.93
2018-04-11T12:20:44.337Z,4.93
2018-04-11T12:23:12.538Z,5.97
2018-04-11T12:25:40.729Z,5.00
2018-04-11T12:28:08.934Z,5.30
2018-04-11T12:30:37.134Z,6.93
2018-04-11T12:33:05.338Z,6.13
2018-04-11T12:35:33.524Z,5.10
2018-04-11T12:38:01.733Z,5.33
2018-04-11T12:40:29.926Z,5.47
2018-04-11T12:42:58.130Z,5.07
2018-04-11T12:45:26.325Z,5.23
2018-04-11T12:47:54.521Z,5.57
2018-04-11T12:50:22.718Z,4.60
2018-04-11T12:52:50.929Z,6.00
2018-04-11T12:55:18.362Z,5.30
2018-04-11T12:57:45.798Z,4.87
2018-04-11T13:00:13.230Z,5.23
2018-04-11T13:02:40.675Z,4.30
2018-04-11T13:05:08.102Z,6.87
2018-04-11T13:07:35.538Z,4.80
2018-04-11T13:10:02.976Z,4.10
2018-04-11T13:12:31.169Z,5.13
2018-04-11T13:14:59.374Z,5.97
2018-04-11T13:17:27.584Z,5.10
2018-04-11T13:19:55.777Z,5.00
2018-04-11T13:22:23.985Z,6.50
2018-04-11T13:24:52.189Z,4.50
2018-04-11T13:27:19.622Z,5.60
2018-04-11T13:29:47.045Z,4.57
2018-04-11T13:32:14.487Z,6.90
2018-04-11T13:34:41.921Z,5.50
2018-04-11T13:37:09.358Z,7.00
2018-04-11T13:39:36.790Z,4.60
2018-04-11T13:42:04.230Z,7.80
2018-04-11T13:44:32.426Z,5.37
2018-04-11T13:47:00.637Z,4.67
2018-04-11T13:49:28.847Z,6.57
2018-04-11T13:51:56.296Z,5.80
2018-04-11T13:54:23.727Z,5.40
2018-04-11T13:56:51.161Z,6.70
2018-04-11T13:59:18.605Z,5.10
2018-04-11T14:01:46.802Z,5.57
2018-04-11T14:04:14.238Z,4.70
2018-04-11T14:06:42.444Z,4.80
2018-04-11T14:09:10.654Z,5.00
2018-04-11T14:11:38.089Z,5.70
2018-04-11T14:14:05.526Z,4.70
2018-04-11T14:16:32.952Z,4.70
2018-04-11T14:19:00.385Z,4.40
2018-04-11T14:21:27.822Z,5.03
2018-04-11T14:23:56.030Z,5.03
2018-04-11T14:26:24.226Z,6.30
2018-04-11T14:28:52.435Z,5.07
2018-04-11T14:31:20.620Z,6.40
2018-04-11T14:33:48.829Z,4.50
2018-04-11T14:36:17.021Z,4.50
2018-04-11T14:38:45.228Z,4.80
2018-04-11T14:41:13.431Z,5.67
2018-04-11T14:43:41.643Z,5.83
2018-04-11T14:46:09.071Z,5.13
2018-04-11T14:48:36.513Z,4.87
2018-04-11T14:51:03.947Z,5.27
2018-04-11T14:53:31.385Z,5.23
2018-04-11T14:55:58.813Z,4.90
2018-04-11T14:58:27.022Z,3.70
2018-04-11T15:00:55.792Z,4.43
2018-04-11T15:03:23.238Z,4.97
2018-04-11T15:05:50.670Z,4.87
2018-04-11T15:08:18.123Z,5.87
2018-04-11T15:10:45.559Z,5.20
2018-04-11T15:13:13.757Z,5.40
2018-04-11T15:15:41.962Z,4.90
2018-04-11T15:18:10.171Z,4.70
2018-04-11T15:20:37.602Z,4.90
2018-04-11T15:23:05.037Z,4.70
2018-04-11T15:25:32.470Z,4.30
2018-04-11T15:27:59.915Z,4.03
2018-04-11T15:30:27.345Z,4.40
2018-04-11T15:32:54.781Z,4.80
2018-04-11T15:35:22.214Z,4.70
2018-04-11T15:37:50.427Z,4.70
2018-04-11T15:40:18.610Z,4.77
2018-04-11T15:42:46.818Z,4.17
2018-04-11T15:45:15.021Z,4.70
2018-04-11T15:47:42.463Z,3.90
2018-04-11T15:50:09.894Z,4.53
2018-04-11T15:52:37.332Z,4.90
2018-04-11T15:55:04.766Z,4.27
2018-04-11T15:57:32.201Z,4.40
2018-04-11T16:00:00.399Z,4.00
2018-04-11T16:02:28.594Z,4.40
2018-04-11T16:04:56.035Z,4.43
2018-04-11T16:07:23.462Z,4.57
2018-04-11T16:09:50.908Z,3.87
2018-04-11T16:12:18.331Z,4.80
2018-04-11T16:14:46.538Z,4.50
2018-04-11T16:17:13.973Z,4.00
2018-04-11T16:19:41.414Z,4.60
2018-04-11T16:22:08.850Z,4.10
2018-04-11T16:24:36.285Z,4.80
2018-04-11T16:27:03.727Z,4.20
2018-04-11T16:29:31.167Z,4.93
2018-04-11T16:31:58.601Z,3.93
2018-04-11T16:34:26.043Z,5.67
2018-04-11T16:36:53.486Z,12.57
2018-04-11T16:39:21.693Z,4.80
2018-04-11T16:41:49.887Z,5.27
2018-04-11T16:44:18.098Z,4.27
2018-04-11T16:46:46.301Z,4.33
2018-04-11T16:49:14.493Z,4.70
2018-04-11T16:51:42.706Z,4.50
2018-04-11T16:54:10.909Z,4.53
2018-04-11T16:56:39.114Z,5.10
2018-04-11T16:59:06.549Z,4.80
2018-04-11T17:01:33.982Z,4.77
2018-04-11T17:04:01.429Z,5.27
2018-04-11T17:06:28.857Z,5.17
2018-04-11T17:08:56.312Z,4.70
2018-04-11T17:11:23.722Z,4.70
2018-04-11T17:13:51.153Z,4.83
2018-04-11T17:16:18.581Z,5.10
2018-04-11T17:18:46.795Z,4.90
2018-04-11T17:24:38.917Z,5.50
2018-04-11T17:27:18.206Z,5.50
2018-04-11T17:29:57.581Z,5.00
2018-04-11T17:32:25.014Z,5.00
2018-04-11T17:34:53.218Z,5.93
2018-04-11T17:37:20.646Z,4.50
2018-04-11T17:39:48.086Z,5.10
2018-04-11T17:42:15.514Z,5.17
2018-04-11T17:44:42.946Z,5.10
2018-04-11T17:47:10.378Z,5.30
2018-04-11T17:49:37.814Z,5.40
2018-04-11T17:52:05.245Z,6.10
2018-04-11T17:54:32.682Z,5.80
2018-04-11T17:57:00.122Z,5.60
2018-04-11T17:59:27.635Z,6.33
2018-04-11T18:01:55.058Z,6.20
2018-04-11T18:04:22.498Z,5.50
2018-04-11T18:06:49.926Z,5.60
2018-04-11T18:09:17.370Z,6.20
2018-04-11T18:11:44.798Z,6.03
2018-04-11T18:14:12.225Z,5.63
2018-04-11T18:16:39.661Z,6.67
2018-04-11T18:19:07.094Z,5.70
2018-04-11T18:21:34.537Z,6.47
2018-04-11T18:24:02.802Z,5.97
2018-04-11T18:26:30.938Z,6.30
2018-04-11T18:28:59.128Z,5.90
2018-04-11T18:31:27.335Z,7.10
2018-04-11T18:33:55.529Z,6.60
2018-04-11T18:36:23.745Z,6.37
2018-04-11T18:38:51.178Z,5.87
2018-04-11T18:41:18.615Z,7.17
2018-04-11T18:43:46.051Z,6.73
2018-04-11T18:46:13.489Z,7.10
2018-04-11T18:48:40.922Z,7.10
2018-04-11T18:51:09.130Z,7.90
2018-04-11T18:53:37.335Z,7.23
2018-04-11T18:56:05.547Z,7.60
2018-04-11T18:58:33.741Z,6.53
2018-04-11T19:01:01.183Z,6.50
2018-04-11T19:03:28.615Z,6.80
2018-04-11T19:05:56.061Z,6.03
2018-04-11T19:08:24.257Z,6.13
2018-04-11T19:10:52.461Z,6.70
2018-04-11T19:13:20.700Z,6.83
2018-04-11T19:15:48.868Z,6.40
2018-04-11T19:18:17.062Z,6.37
2018-04-11T19:20:45.265Z,6.93
2018-04-11T19:23:13.465Z,6.33
2018-04-11T19:25:41.670Z,5.90
2018-04-11T19:28:09.102Z,6.57
2018-04-11T19:30:36.542Z,7.03
2018-04-11T19:33:03.978Z,7.40
2018-04-11T19:35:31.414Z,7.17
2018-04-11T19:37:58.879Z,6.80
2018-04-11T19:40:26.281Z,6.40
2018-04-11T19:42:53.709Z,6.53
2018-04-11T19:45:21.921Z,9.60
2018-04-11T19:47:50.107Z,7.00
2018-04-11T19:50:18.318Z,8.03
2018-04-11T19:52:46.514Z,7.30
2018-04-11T19:55:14.718Z,7.27
2018-04-11T19:57:42.162Z,8.73
2018-04-11T20:00:09.605Z,8.07
2018-04-11T20:02:37.039Z,8.33
2018-04-11T20:05:04.478Z,10.80
2018-04-11T20:07:31.934Z,7.80
2018-04-11T20:10:00.136Z,15.50
2018-04-11T20:12:27.573Z,10.30
2018-04-11T20:14:55.010Z,8.90
2018-04-11T20:17:22.445Z,7.23
2018-04-11T20:19:50.650Z,8.57
2018-04-11T20:22:18.858Z,8.70
2018-04-11T20:24:47.059Z,7.70
2018-04-11T20:27:15.261Z,9.90
2018-04-11T20:29:42.694Z,7.97
2018-04-11T20:32:10.138Z,8.23
2018-04-11T20:34:37.579Z,7.90
2018-04-11T20:37:05.018Z,8.07
2018-04-11T20:39:32.450Z,8.73
2018-04-11T20:42:00.658Z,8.17
2018-04-11T20:44:28.859Z,8.47
2018-04-11T20:46:57.062Z,8.17
2018-04-11T20:49:24.496Z,8.10
2018-04-11T20:51:51.930Z,7.17
2018-04-11T20:54:19.362Z,8.57
2018-04-11T20:56:46.806Z,8.10
2018-04-11T20:59:14.246Z,8.30
2018-04-11T21:01:42.449Z,8.30
2018-04-11T21:04:10.651Z,8.20
2018-04-11T21:06:38.862Z,8.40
2018-04-11T21:09:07.057Z,8.60
2018-04-11T21:11:34.514Z,8.20
2018-04-11T21:14:01.942Z,8.47
2018-04-11T21:16:29.382Z,8.97
2018-04-11T21:18:57.582Z,8.23
2018-04-11T21:21:25.785Z,7.40
2018-04-11T21:23:53.990Z,8.70
2018-04-11T21:26:22.194Z,8.10
2018-04-11T21:28:49.626Z,7.50
2018-04-11T21:31:17.831Z,8.63
2018-04-11T21:33:45.270Z,7.97
2018-04-11T21:36:12.709Z,8.17
2018-04-11T21:38:40.157Z,7.87
2018-04-11T21:41:07.594Z,7.77
2018-04-11T21:43:35.799Z,8.60
2018-04-11T21:46:03.232Z,7.90
2018-04-11T21:48:30.669Z,7.57
2018-04-11T21:50:58.169Z,7.00
2018-04-11T21:53:25.538Z,8.03
2018-04-11T21:55:52.985Z,7.70
2018-04-11T21:58:21.186Z,8.80
2018-04-11T22:00:49.403Z,8.00
2018-04-11T22:03:16.838Z,8.33
2018-04-11T22:05:44.281Z,8.30
2018-04-11T22:08:11.714Z,8.53
2018-04-11T22:10:39.149Z,7.40
2018-04-11T22:13:06.589Z,8.10
2018-04-11T22:15:34.790Z,8.40
2018-04-11T22:18:02.995Z,9.00
2018-04-11T22:20:30.430Z,8.87
2018-04-11T22:22:57.875Z,9.47
2018-04-11T22:25:25.311Z,9.57
2018-04-11T22:27:52.745Z,8.97
2018-04-11T22:30:20.181Z,9.27
2018-04-11T22:32:48.394Z,11.40
2018-04-11T22:35:16.598Z,9.40
2018-04-11T22:37:44.038Z,8.97
2018-04-11T22:40:11.490Z,9.50
2018-04-11T22:42:38.929Z,9.20
2018-04-11T22:45:06.372Z,9.77
2018-04-11T22:47:33.809Z,9.60
2018-04-11T22:50:01.246Z,9.63
2018-04-11T22:52:28.685Z,10.50
2018-04-11T22:54:56.121Z,9.00
2018-04-11T22:57:24.325Z,9.30
2018-04-11T22:59:52.533Z,9.07
2018-04-11T23:02:20.742Z,9.40
2018-04-11T23:04:48.178Z,9.10
2018-04-11T23:07:15.623Z,8.80
2018-04-11T23:09:43.054Z,8.93
2018-04-11T23:12:10.498Z,8.90
2018-04-11T23:14:37.934Z,9.57
2018-04-11T23:17:06.176Z,8.27
2018-04-11T23:19:33.577Z,9.37
2018-04-11T23:22:01.018Z,9.83
2018-04-11T23:24:28.461Z,10.30
2018-04-11T23:26:56.674Z,10.03
2018-04-11T23:29:24.878Z,10.00
2018-04-11T23:31:52.322Z,10.20
2018-04-11T23:34:19.762Z,10.30
2018-04-11T23:36:47.214Z,10.57
2018-04-11T23:39:15.413Z,10.27
2018-04-11T23:41:42.853Z,8.90
2018-04-11T23:44:10.277Z,9.87
2018-04-11T23:46:37.728Z,10.53
2018-04-11T23:49:05.158Z,10.47
2018-04-11T23:51:32.634Z,9.77
2018-04-11T23:54:00.070Z,10.97
2018-04-11T23:56:27.514Z,10.13
2018-04-11T23:58:54.944Z,9.90
